createdAt,value
2023-02-26T00:01:26.206Z,11.70
2023-02-26T00:03:55.902Z,11.65
2023-02-26T00:06:24.297Z,11.67
2023-02-26T00:08:51.673Z,11.63
2023-02-26T00:11:19.149Z,11.51
2023-02-26T00:13:46.462Z,11.47
2023-02-26T00:16:43.904Z,11.57
2023-02-26T00:19:12.446Z,11.58
2023-02-26T00:21:39.630Z,11.67
2023-02-26T00:24:06.895Z,11.61
2023-02-26T00:26:35.531Z,11.51
2023-02-26T00:29:04.085Z,11.64
2023-02-26T00:31:31.522Z,11.51
2023-02-26T00:33:59.039Z,11.61
2023-02-26T00:36:45.196Z,11.84
2023-02-26T00:39:33.936Z,11.66
2023-02-26T00:42:01.124Z,11.45
2023-02-26T00:44:28.332Z,11.69
2023-02-26T00:47:13.966Z,11.59
2023-02-26T00:50:09.827Z,11.59
2023-02-26T00:52:44.274Z,11.84
2023-02-26T00:55:11.353Z,11.71
2023-02-26T00:57:38.360Z,11.55
2023-02-26T01:00:08.143Z,11.60
2023-02-26T01:02:36.964Z,11.63
2023-02-26T01:05:04.779Z,11.64
2023-02-26T01:07:40.429Z,11.68
2023-02-26T01:10:08.381Z,11.57
2023-02-26T01:12:35.844Z,11.52
2023-02-26T01:15:04.556Z,11.54
2023-02-26T01:17:41.173Z,11.56
2023-02-26T01:20:21.734Z,11.56
2023-02-26T01:22:51.624Z,11.65
2023-02-26T01:25:24.922Z,11.64
2023-02-26T01:27:52.808Z,11.50
2023-02-26T01:30:20.686Z,11.54
2023-02-26T01:33:22.018Z,11.46
2023-02-26T01:35:53.839Z,11.68
2023-02-26T01:38:28.503Z,11.65
2023-02-26T01:41:04.889Z,11.52
2023-02-26T01:43:39.627Z,11.49
2023-02-26T01:46:18.252Z,11.51
2023-02-26T01:48:52.338Z,11.48
2023-02-26T01:51:40.091Z,11.66
2023-02-26T01:54:07.308Z,11.72
2023-02-26T01:56:34.665Z,11.68
2023-02-26T01:59:06.047Z,11.65
2023-02-26T02:01:34.084Z,11.74
2023-02-26T02:04:01.148Z,11.76
2023-02-26T02:06:29.896Z,11.88
2023-02-26T02:08:57.014Z,12.05
2023-02-26T02:11:24.542Z,11.87
2023-02-26T02:14:41.918Z,11.96
2023-02-26T02:17:33.146Z,11.91
2023-02-26T02:20:34.092Z,12.01
2023-02-26T02:23:11.983Z,12.16
2023-02-26T02:25:48.088Z,12.13
2023-02-26T02:28:24.125Z,12.19
2023-02-26T02:31:13.943Z,12.12
2023-02-26T02:34:17.338Z,12.14
2023-02-26T02:36:53.371Z,12.29
2023-02-26T02:39:27.915Z,12.21
2023-02-26T02:42:27.559Z,12.20
2023-02-26T02:45:00.973Z,12.17
2023-02-26T02:47:31.107Z,12.09
2023-02-26T02:50:13.629Z,12.10
2023-02-26T02:52:50.346Z,12.41
2023-02-26T02:55:38.642Z,12.22
2023-02-26T02:58:11.713Z,12.10
2023-02-26T03:00:42.761Z,12.20
2023-02-26T03:03:25.066Z,12.14
2023-02-26T03:05:52.387Z,12.15
2023-02-26T03:08:25.447Z,12.39
2023-02-26T03:10:52.609Z,12.31
2023-02-26T03:13:23.649Z,12.29
2023-02-26T03:16:21.400Z,12.41
2023-02-26T03:19:00.737Z,12.29
2023-02-26T03:21:49.500Z,12.51
2023-02-26T03:24:55.550Z,12.32
2023-02-26T03:27:49.554Z,12.28
2023-02-26T03:30:40.600Z,12.26
2023-02-26T03:33:16.726Z,12.25
2023-02-26T03:35:55.302Z,12.51
2023-02-26T03:38:51.829Z,12.34
2023-02-26T03:41:36.137Z,12.27
2023-02-26T03:44:09.936Z,12.28
2023-02-26T03:46:44.883Z,12.39
2023-02-26T03:49:27.178Z,12.35
2023-02-26T03:51:55.023Z,12.33
2023-02-26T03:55:04.094Z,12.41
2023-02-26T03:57:50.138Z,12.38
2023-02-26T04:00:38.187Z,12.42
2023-02-26T04:03:14.638Z,12.40
2023-02-26T04:05:45.102Z,12.62
2023-02-26T04:08:12.193Z,12.73
2023-02-26T04:10:55.869Z,12.60
2023-02-26T04:13:23.762Z,12.51
2023-02-26T04:15:51.274Z,12.59
2023-02-26T04:18:18.347Z,12.54
2023-02-26T04:20:45.245Z,12.77
2023-02-26T04:23:12.283Z,12.28
2023-02-26T04:25:39.985Z,12.45
2023-02-26T04:28:07.227Z,12.30
2023-02-26T04:30:34.346Z,12.34
2023-02-26T04:33:03.045Z,12.35
2023-02-26T04:35:30.239Z,12.19
2023-02-26T04:37:57.772Z,12.33
2023-02-26T04:40:25.172Z,12.52
2023-02-26T04:42:52.307Z,12.52
2023-02-26T04:45:23.914Z,12.67
2023-02-26T04:47:51.089Z,12.37
2023-02-26T04:50:18.153Z,12.42
2023-02-26T04:52:47.940Z,12.68
2023-02-26T04:55:14.954Z,12.70
2023-02-26T04:57:41.903Z,12.81
2023-02-26T05:00:09.511Z,12.84
2023-02-26T05:02:38.851Z,12.91
2023-02-26T05:05:05.924Z,12.93
2023-02-26T05:07:33.325Z,12.85
2023-02-26T05:10:00.228Z,12.67
2023-02-26T05:12:27.285Z,12.84
2023-02-26T05:14:54.233Z,12.83
2023-02-26T05:17:21.155Z,12.91
2023-02-26T05:19:48.176Z,13.03
2023-02-26T05:22:15.940Z,12.82
2023-02-26T05:24:43.927Z,12.72
2023-02-26T05:27:11.014Z,13.00
2023-02-26T05:29:45.028Z,12.91
2023-02-26T05:32:14.244Z,12.78
2023-02-26T05:34:41.216Z,12.92
2023-02-26T05:37:08.089Z,12.81
2023-02-26T05:39:35.076Z,12.73
2023-02-26T05:42:02.003Z,12.73
2023-02-26T05:44:29.139Z,12.78
2023-02-26T05:46:56.165Z,12.92
2023-02-26T05:49:23.099Z,12.84
2023-02-26T05:51:50.059Z,12.96
2023-02-26T05:54:17.047Z,12.92
2023-02-26T05:56:44.121Z,12.63
2023-02-26T05:59:11.112Z,12.50
2023-02-26T06:01:38.245Z,12.67
2023-02-26T06:04:06.581Z,12.70
2023-02-26T06:06:33.927Z,12.86
2023-02-26T06:09:02.420Z,12.79
2023-02-26T06:11:34.065Z,12.64
2023-02-26T06:14:01.593Z,12.77
2023-02-26T06:16:28.886Z,12.65
2023-02-26T06:18:55.986Z,12.58
2023-02-26T06:21:22.939Z,12.79
2023-02-26T06:23:49.993Z,12.80
2023-02-26T06:26:16.917Z,12.78
2023-02-26T06:28:43.830Z,12.72
2023-02-26T06:31:10.753Z,12.71
2023-02-26T06:33:37.679Z,12.62
2023-02-26T06:36:04.940Z,12.92
2023-02-26T06:38:31.804Z,12.87
2023-02-26T06:40:58.877Z,12.59
2023-02-26T06:43:26.164Z,12.73
2023-02-26T06:45:53.143Z,12.73
2023-02-26T06:48:20.278Z,12.83
2023-02-26T06:50:47.217Z,12.75
2023-02-26T06:53:14.175Z,12.69
2023-02-26T06:55:46.095Z,12.86
2023-02-26T06:58:14.104Z,12.83
2023-02-26T07:00:41.636Z,12.84
2023-02-26T07:03:12.954Z,12.75
2023-02-26T07:05:39.892Z,12.79
2023-02-26T07:08:06.865Z,13.00
2023-02-26T07:10:35.486Z,12.93
2023-02-26T07:13:03.193Z,12.89
2023-02-26T07:15:30.553Z,12.95
2023-02-26T07:17:57.479Z,13.03
2023-02-26T07:20:24.429Z,13.08
2023-02-26T07:22:51.353Z,13.03
2023-02-26T07:25:18.625Z,13.05
2023-02-26T07:27:45.521Z,13.03
2023-02-26T07:30:13.023Z,13.02
2023-02-26T07:32:40.107Z,13.06
2023-02-26T07:35:07.315Z,13.00
2023-02-26T07:37:34.225Z,13.21
2023-02-26T07:40:01.204Z,13.31
2023-02-26T07:42:28.122Z,13.32
2023-02-26T07:44:55.078Z,13.09
2023-02-26T07:47:22.059Z,13.15
2023-02-26T07:49:49.099Z,13.26
2023-02-26T07:52:16.708Z,13.32
2023-02-26T07:54:43.899Z,13.39
2023-02-26T07:57:10.992Z,13.44
2023-02-26T07:59:38.004Z,13.44
2023-02-26T08:02:07.071Z,13.39
2023-02-26T08:04:34.233Z,13.49
2023-02-26T08:07:01.793Z,13.69
2023-02-26T08:09:29.362Z,13.68
2023-02-26T08:11:56.560Z,13.81
2023-02-26T08:14:23.631Z,13.87
2023-02-26T08:16:50.616Z,13.76
2023-02-26T08:19:18.438Z,14.00
2023-02-26T08:21:45.342Z,13.87
2023-02-26T08:24:12.815Z,13.94
2023-02-26T08:26:39.833Z,13.90
2023-02-26T08:29:07.527Z,13.90
2023-02-26T08:31:35.611Z,14.00
2023-02-26T08:34:02.694Z,14.37
2023-02-26T08:36:30.472Z,14.25
2023-02-26T08:38:57.613Z,14.29
2023-02-26T08:41:27.686Z,14.58
2023-02-26T08:43:54.831Z,14.47
2023-02-26T08:46:22.036Z,14.41
2023-02-26T08:48:49.042Z,14.50
2023-02-26T08:51:16.009Z,14.76
2023-02-26T08:53:45.470Z,14.80
2023-02-26T08:56:12.433Z,15.13
2023-02-26T08:58:39.914Z,15.27
2023-02-26T09:01:06.911Z,15.35
2023-02-26T09:03:33.857Z,15.41
2023-02-26T09:06:00.879Z,15.36
2023-02-26T09:08:27.828Z,15.53
2023-02-26T09:10:54.769Z,15.45
2023-02-26T09:13:21.700Z,15.61
2023-02-26T09:15:49.830Z,15.62
2023-02-26T09:18:16.853Z,15.52
2023-02-26T09:20:45.136Z,15.68
2023-02-26T09:23:12.993Z,15.89
2023-02-26T09:25:40.104Z,15.96
2023-02-26T09:28:07.099Z,16.16
2023-02-26T09:30:34.202Z,16.28
2023-02-26T09:33:01.154Z,16.28
2023-02-26T09:35:28.355Z,16.35
2023-02-26T09:37:55.276Z,16.07
2023-02-26T09:40:25.910Z,16.14
2023-02-26T09:43:17.214Z,16.08
2023-02-26T10:18:01.317Z,15.53
2023-02-26T10:20:39.882Z,15.70
2023-02-26T10:23:18.112Z,15.85
2023-02-26T10:25:50.023Z,16.00
2023-02-26T10:28:35.256Z,16.22
2023-02-26T10:31:17.313Z,16.37
2023-02-26T10:33:50.892Z,16.15
2023-02-26T10:36:25.182Z,16.15
2023-02-26T10:38:59.459Z,16.03
2023-02-26T10:41:30.602Z,15.80
2023-02-26T10:44:24.408Z,15.91
2023-02-26T10:47:28.239Z,16.05
2023-02-26T10:50:13.611Z,15.86
2023-02-26T10:52:43.728Z,15.90
2023-02-26T10:55:16.321Z,15.92
2023-02-26T10:57:55.102Z,15.71
2023-02-26T11:00:22.928Z,15.82
2023-02-26T11:02:53.539Z,15.89
2023-02-26T11:05:28.156Z,15.57
2023-02-26T11:08:00.370Z,15.68
2023-02-26T11:10:40.633Z,15.70
2023-02-26T11:13:07.798Z,15.66
2023-02-26T11:15:34.777Z,15.54
2023-02-26T11:18:02.404Z,15.57
2023-02-26T11:20:37.660Z,15.58
2023-02-26T11:23:11.447Z,15.61
2023-02-26T11:25:39.480Z,15.66
2023-02-26T11:28:19.997Z,15.56
2023-02-26T11:30:49.301Z,15.85
2023-02-26T11:33:24.547Z,15.56
2023-02-26T11:35:52.598Z,15.77
2023-02-26T11:38:25.758Z,15.76
2023-02-26T11:40:58.356Z,15.80
2023-02-26T11:43:33.895Z,15.83
2023-02-26T11:46:02.995Z,16.04
2023-02-26T11:48:39.489Z,15.83
2023-02-26T11:51:07.570Z,15.70
2023-02-26T11:53:43.107Z,15.71
2023-02-26T11:56:16.033Z,15.76
2023-02-26T11:58:46.066Z,15.92
2023-02-26T12:01:16.826Z,15.94
2023-02-26T12:03:47.958Z,15.86
2023-02-26T12:06:24.926Z,15.75
2023-02-26T12:08:53.554Z,15.76
2023-02-26T12:11:50.453Z,15.66
2023-02-26T12:14:39.391Z,15.70
2023-02-26T12:17:16.305Z,15.79
2023-02-26T12:20:15.294Z,15.76
2023-02-26T12:23:01.090Z,15.63
2023-02-26T12:25:49.575Z,15.66
2023-02-26T12:28:44.395Z,15.82
2023-02-26T12:31:36.698Z,15.79
2023-02-26T12:34:15.581Z,15.90
2023-02-26T12:36:49.866Z,15.70
2023-02-26T12:39:40.721Z,15.59
2023-02-26T12:42:47.487Z,15.56
2023-02-26T12:45:36.133Z,15.57
2023-02-26T12:48:14.995Z,15.81
2023-02-26T12:51:09.740Z,15.69
2023-02-26T12:53:39.287Z,15.66
2023-02-26T12:56:24.360Z,15.77
2023-02-26T12:59:18.238Z,15.74
2023-02-26T13:02:13.623Z,15.73
2023-02-26T13:04:52.425Z,15.88
2023-02-26T13:07:50.062Z,15.58
2023-02-26T13:10:35.130Z,15.65
2023-02-26T13:13:28.521Z,15.48
2023-02-26T13:16:04.388Z,15.40
2023-02-26T13:18:48.853Z,15.31
2023-02-26T13:21:33.545Z,15.24
2023-02-26T13:24:11.622Z,15.26
2023-02-26T13:26:39.099Z,15.39
2023-02-26T13:29:17.587Z,15.26
2023-02-26T13:31:59.219Z,15.27
2023-02-26T13:34:35.389Z,15.27
2023-02-26T13:37:03.903Z,15.30
2023-02-26T13:39:41.125Z,15.24
2023-02-26T13:42:35.692Z,15.20
2023-02-26T13:45:36.930Z,15.21
2023-02-26T13:48:41.694Z,15.47
2023-02-26T13:51:29.733Z,15.25
2023-02-26T13:54:04.614Z,15.08
2023-02-26T13:56:31.536Z,15.01
2023-02-26T13:59:15.139Z,14.92
2023-02-26T14:01:47.553Z,14.87
2023-02-26T14:04:20.277Z,14.90
2023-02-26T14:06:59.923Z,14.75
2023-02-26T14:09:36.612Z,14.85
2023-02-26T14:12:18.343Z,14.83
2023-02-26T14:15:13.895Z,14.76
2023-02-26T14:17:49.244Z,14.83
2023-02-26T14:20:26.740Z,15.05
2023-02-26T14:23:06.463Z,14.90
2023-02-26T14:25:37.816Z,14.78
2023-02-26T14:28:33.794Z,14.82
2023-02-26T14:31:04.411Z,14.73
2023-02-26T14:33:37.975Z,14.69
2023-02-26T14:36:08.423Z,14.74
2023-02-26T14:38:39.570Z,14.69
2023-02-26T14:41:18.950Z,14.72
2023-02-26T14:44:21.044Z,14.66
2023-02-26T14:46:49.815Z,14.65
2023-02-26T14:49:27.490Z,14.72
2023-02-26T14:52:03.925Z,14.87
2023-02-26T14:54:42.843Z,14.79
2023-02-26T14:57:28.243Z,14.58
2023-02-26T15:00:19.129Z,14.59
2023-02-26T15:03:13.658Z,14.60
2023-02-26T15:06:04.410Z,14.61
2023-02-26T15:08:49.420Z,14.55
2023-02-26T15:11:56.790Z,14.46
2023-02-26T15:14:43.713Z,14.41
2023-02-26T15:17:34.295Z,14.50
2023-02-26T15:20:10.055Z,14.53
2023-02-26T15:22:36.901Z,14.67
2023-02-26T15:25:11.965Z,14.74
2023-02-26T15:27:39.212Z,14.55
2023-02-26T15:30:06.962Z,14.53
2023-02-26T15:32:38.138Z,14.44
2023-02-26T15:35:16.521Z,14.46
2023-02-26T15:37:43.650Z,14.38
2023-02-26T15:40:14.537Z,14.52
2023-02-26T15:42:45.377Z,14.55
2023-02-26T15:45:33.627Z,14.47
2023-02-26T15:48:25.272Z,14.45
2023-02-26T15:50:59.354Z,14.51
2023-02-26T15:53:35.856Z,14.51
2023-02-26T15:56:06.166Z,14.66
2023-02-26T15:58:40.960Z,14.56
2023-02-26T16:01:08.073Z,14.42
2023-02-26T16:03:37.527Z,14.38
2023-02-26T16:06:07.082Z,14.49
2023-02-26T16:08:34.247Z,14.46
2023-02-26T16:11:02.284Z,14.43
2023-02-26T16:13:33.048Z,14.42
2023-02-26T16:16:12.049Z,14.39
2023-02-26T16:18:41.438Z,14.43
2023-02-26T16:21:12.748Z,14.57
2023-02-26T16:23:45.362Z,14.51
2023-02-26T16:26:21.631Z,14.49
2023-02-26T16:28:54.112Z,14.42
2023-02-26T16:31:25.518Z,14.37
2023-02-26T16:33:59.978Z,14.38
2023-02-26T16:36:31.661Z,14.32
2023-02-26T16:39:27.815Z,14.31
2023-02-26T16:42:37.142Z,14.29
2023-02-26T16:45:30.239Z,14.37
2023-02-26T16:47:58.868Z,14.28
2023-02-26T16:50:29.255Z,14.27
2023-02-26T16:53:06.343Z,14.29
2023-02-26T16:55:36.880Z,14.22
2023-02-26T16:58:07.747Z,14.27
2023-02-26T17:00:37.589Z,14.33
2023-02-26T17:03:18.573Z,14.28
2023-02-26T17:06:02.293Z,14.21
2023-02-26T17:08:52.512Z,14.15
2023-02-26T17:11:28.444Z,14.18
2023-02-26T17:14:22.607Z,14.17
2023-02-26T17:16:51.036Z,14.28
2023-02-26T17:19:19.130Z,14.24
2023-02-26T17:22:00.485Z,14.24
2023-02-26T17:24:33.785Z,14.34
2023-02-26T17:27:02.989Z,14.31
2023-02-26T17:29:42.181Z,14.35
2023-02-26T17:32:20.614Z,14.37
2023-02-26T17:34:47.749Z,14.28
2023-02-26T17:37:15.632Z,14.28
2023-02-26T17:39:43.765Z,14.36
2023-02-26T17:42:21.893Z,14.43
2023-02-26T17:44:49.794Z,14.40
2023-02-26T17:47:19.405Z,14.49
2023-02-26T17:49:46.824Z,14.58
2023-02-26T17:52:14.431Z,14.38
2023-02-26T17:54:41.672Z,14.39
2023-02-26T17:57:16.759Z,14.39
2023-02-26T17:59:43.737Z,14.46
2023-02-26T18:02:21.460Z,14.41
2023-02-26T18:04:48.415Z,14.29
2023-02-26T18:07:16.952Z,14.33
2023-02-26T18:09:45.788Z,14.28
2023-02-26T18:12:18.223Z,14.30
2023-02-26T18:14:46.285Z,14.35
2023-02-26T18:17:15.124Z,14.41
2023-02-26T18:19:43.049Z,14.35
2023-02-26T18:22:14.497Z,14.29
2023-02-26T18:24:42.103Z,14.31
2023-02-26T18:27:14.798Z,14.31
2023-02-26T18:29:42.000Z,14.24
2023-02-26T18:32:17.327Z,14.27
2023-02-26T18:34:44.540Z,14.39
2023-02-26T18:37:17.208Z,14.30
2023-02-26T18:39:44.902Z,14.37
2023-02-26T18:42:23.398Z,14.34
2023-02-26T18:44:51.525Z,14.35
2023-02-26T18:47:19.632Z,14.25
2023-02-26T18:49:49.726Z,14.45
2023-02-26T18:52:17.551Z,14.36
2023-02-26T18:54:45.315Z,14.27
2023-02-26T18:57:12.347Z,14.28
2023-02-26T18:59:39.501Z,14.24
2023-02-26T19:02:08.068Z,14.27
2023-02-26T19:04:35.337Z,14.27
2023-02-26T19:07:02.447Z,14.26
2023-02-26T19:09:29.708Z,14.18
2023-02-26T19:11:57.505Z,14.13
2023-02-26T19:14:25.108Z,14.18
2023-02-26T19:16:52.140Z,14.13
2023-02-26T19:19:19.352Z,14.22
2023-02-26T19:21:46.759Z,14.32
2023-02-26T19:24:15.104Z,14.40
2023-02-26T19:26:43.328Z,14.31
2023-02-26T19:29:15.263Z,14.27
2023-02-26T19:31:43.103Z,14.32
2023-02-26T19:34:10.488Z,14.24
2023-02-26T19:36:37.681Z,14.37
2023-02-26T19:39:05.914Z,14.37
2023-02-26T19:41:33.236Z,14.18
2023-02-26T19:44:00.338Z,14.12
2023-02-26T19:46:27.481Z,14.17
2023-02-26T19:48:54.466Z,14.19
2023-02-26T19:51:21.678Z,14.12
2023-02-26T19:53:48.571Z,14.33
2023-02-26T19:56:16.249Z,14.21
2023-02-26T19:58:43.764Z,14.13
2023-02-26T20:01:10.848Z,14.18
2023-02-26T20:03:37.819Z,14.25
2023-02-26T20:06:05.198Z,14.22
2023-02-26T20:08:32.369Z,14.34
2023-02-26T20:10:59.388Z,14.34
2023-02-26T20:13:29.908Z,14.23
2023-02-26T20:15:58.746Z,14.19
2023-02-26T20:18:28.722Z,14.13
2023-02-26T20:20:55.869Z,14.18
2023-02-26T20:23:22.971Z,14.28
2023-02-26T20:25:50.686Z,14.27
2023-02-26T20:28:18.598Z,14.33
2023-02-26T20:30:46.565Z,14.20
2023-02-26T20:33:14.231Z,14.24
2023-02-26T20:35:46.092Z,14.32
2023-02-26T20:38:17.955Z,14.20
2023-02-26T20:40:46.742Z,14.38
2023-02-26T20:43:13.724Z,14.29
2023-02-26T20:45:41.907Z,14.29
2023-02-26T20:48:10.113Z,14.18
2023-02-26T20:50:37.616Z,14.26
2023-02-26T20:53:05.261Z,14.13
2023-02-26T20:55:33.153Z,14.14
2023-02-26T20:58:00.237Z,14.06
2023-02-26T21:00:27.857Z,14.18
2023-02-26T21:02:54.921Z,14.04
2023-02-26T21:05:22.068Z,14.09
2023-02-26T21:07:50.675Z,14.11
2023-02-26T21:10:18.685Z,14.04
2023-02-26T21:12:46.119Z,14.14
2023-02-26T21:15:14.162Z,14.20
2023-02-26T21:17:43.073Z,13.94
2023-02-26T21:20:18.155Z,14.04
2023-02-26T21:22:46.366Z,14.12
2023-02-26T21:25:13.723Z,13.95
2023-02-26T21:27:41.297Z,13.99
2023-02-26T21:30:10.264Z,13.96
2023-02-26T21:32:37.417Z,13.95
2023-02-26T21:35:05.569Z,13.88
2023-02-26T21:37:32.620Z,13.86
2023-02-26T21:39:59.646Z,13.85
2023-02-26T21:42:26.822Z,13.90
2023-02-26T21:44:53.741Z,13.97
2023-02-26T21:47:20.623Z,13.99
2023-02-26T21:49:48.392Z,13.83
2023-02-26T21:52:15.380Z,13.81
2023-02-26T21:54:43.884Z,13.82
2023-02-26T21:57:11.092Z,13.76
2023-02-26T21:59:38.028Z,13.73
2023-02-26T22:02:05.532Z,13.77
2023-02-26T22:04:33.842Z,13.70
2023-02-26T22:07:00.943Z,13.53
2023-02-26T22:09:27.957Z,13.50
2023-02-26T22:11:54.973Z,13.50
2023-02-26T22:14:22.276Z,13.57
2023-02-26T22:16:49.265Z,13.51
2023-02-26T22:19:16.213Z,13.44
2023-02-26T22:21:43.167Z,13.36
2023-02-26T22:24:10.397Z,13.42
2023-02-26T22:26:37.553Z,13.49
2023-02-26T22:29:04.651Z,13.48
2023-02-26T22:31:32.638Z,13.49
2023-02-26T22:34:00.443Z,13.51
2023-02-26T22:36:29.538Z,13.59
2023-02-26T22:38:57.234Z,13.63
2023-02-26T22:41:24.372Z,13.63
2023-02-26T22:43:53.783Z,13.50
2023-02-26T22:46:23.370Z,13.56
2023-02-26T22:48:50.282Z,13.60
2023-02-26T22:51:17.211Z,13.66
2023-02-26T22:53:44.133Z,13.43
2023-02-26T22:56:11.123Z,13.46
2023-02-26T22:58:38.765Z,13.40
2023-02-26T23:01:07.476Z,13.43
2023-02-26T23:03:34.938Z,13.60
2023-02-26T23:06:01.918Z,13.54
2023-02-26T23:08:28.889Z,13.51
2023-02-26T23:11:01.181Z,13.50
2023-02-26T23:13:30.913Z,13.56
2023-02-26T23:15:58.505Z,13.60
2023-02-26T23:18:25.661Z,13.58
2023-02-26T23:20:52.653Z,13.65
2023-02-26T23:23:19.552Z,13.68
2023-02-26T23:25:47.071Z,13.52
2023-02-26T23:28:14.208Z,13.46
2023-02-26T23:30:41.476Z,13.49
2023-02-26T23:33:08.506Z,13.48
2023-02-26T23:35:35.934Z,13.53
2023-02-26T23:38:04.241Z,13.55
2023-02-26T23:40:31.714Z,13.48
2023-02-26T23:42:58.895Z,13.36
2023-02-26T23:45:25.882Z,13.37
2023-02-26T23:47:52.827Z,13.35
2023-02-26T23:50:19.704Z,13.37
2023-02-26T23:52:46.854Z,13.48
2023-02-26T23:55:13.772Z,13.51
2023-02-26T23:57:40.857Z,13.33
